createdAt,value
2022-12-09T00:02:31.085Z,0.87
2022-12-09T00:07:52.322Z,0.91
2022-12-09T00:13:13.562Z,0.74
2022-12-09T00:18:35.364Z,0.80
2022-12-09T00:23:57.763Z,0.59
2022-12-09T00:29:18.499Z,0.68
2022-12-09T00:34:39.211Z,0.62
2022-12-09T00:40:02.401Z,0.62
2022-12-09T00:45:23.010Z,0.73
2022-12-09T00:50:45.671Z,0.72
2022-12-09T00:56:07.060Z,0.72
2022-12-09T01:01:29.138Z,0.72
2022-12-09T01:06:51.002Z,0.71
2022-12-09T01:12:11.707Z,0.52
2022-12-09T01:17:32.613Z,0.49
2022-12-09T01:22:53.733Z,0.64
2022-12-09T01:28:14.610Z,0.78
2022-12-09T01:33:35.610Z,0.66
2022-12-09T01:38:58.891Z,0.59
2022-12-09T01:44:27.282Z,0.60
2022-12-09T01:49:48.353Z,0.62
2022-12-09T01:55:10.299Z,0.61
2022-12-09T02:00:31.414Z,0.52
2022-12-09T02:05:53.420Z,0.40
2022-12-09T02:11:23.047Z,0.39
2022-12-09T02:17:06.151Z,0.62
2022-12-09T02:22:41.122Z,0.69
2022-12-09T02:28:25.352Z,0.71
2022-12-09T02:34:17.635Z,0.51
2022-12-09T02:39:55.067Z,0.46
2022-12-09T02:45:21.608Z,0.45
2022-12-09T02:50:49.612Z,0.60
2022-12-09T02:56:14.314Z,0.70
2022-12-09T03:01:50.021Z,0.71
2022-12-09T03:07:26.940Z,0.65
2022-12-09T03:12:56.325Z,0.66
2022-12-09T03:18:21.474Z,0.69
2022-12-09T03:23:46.276Z,0.63
2022-12-09T03:29:12.779Z,0.67
2022-12-09T03:34:38.838Z,0.66
2022-12-09T03:40:01.337Z,0.66
2022-12-09T03:45:24.861Z,0.84
2022-12-09T03:51:10.127Z,0.78
2022-12-09T03:56:41.310Z,0.78
2022-12-09T04:02:05.108Z,0.85
2022-12-09T04:07:26.719Z,1.01
2022-12-09T04:12:48.256Z,0.91
2022-12-09T04:18:09.696Z,0.86
2022-12-09T04:23:30.517Z,0.84
2022-12-09T04:28:51.483Z,0.73
2022-12-09T04:34:12.228Z,0.73
2022-12-09T04:39:33.077Z,0.76
2022-12-09T04:44:53.814Z,0.93
2022-12-09T04:50:15.210Z,0.96
2022-12-09T04:55:36.340Z,0.91
2022-12-09T05:00:58.142Z,1.05
2022-12-09T05:06:20.787Z,1.19
2022-12-09T05:11:42.143Z,1.14
2022-12-09T05:17:04.577Z,1.10
2022-12-09T05:22:25.528Z,1.04
2022-12-09T05:27:46.628Z,0.95
2022-12-09T05:33:08.395Z,0.89
2022-12-09T05:38:30.616Z,0.82
2022-12-09T05:43:52.107Z,0.97
2022-12-09T05:49:12.973Z,0.93
2022-12-09T05:54:34.581Z,0.85
2022-12-09T05:59:55.314Z,0.83
2022-12-09T06:05:16.331Z,1.04
2022-12-09T06:10:41.363Z,1.21
2022-12-09T06:16:04.397Z,1.36
2022-12-09T06:21:26.125Z,1.07
2022-12-09T06:26:47.111Z,0.92
2022-12-09T06:32:08.448Z,1.04
2022-12-09T06:37:29.835Z,0.91
2022-12-09T06:42:51.383Z,0.89
2022-12-09T06:48:12.661Z,1.09
2022-12-09T06:53:34.212Z,1.12
2022-12-09T06:58:54.962Z,1.01
2022-12-09T07:04:15.840Z,1.05
2022-12-09T07:09:37.023Z,1.00
2022-12-09T07:14:58.242Z,0.81
2022-12-09T07:20:19.533Z,0.84
2022-12-09T07:25:40.745Z,0.73
2022-12-09T07:31:02.496Z,0.72
2022-12-09T07:36:25.277Z,0.54
2022-12-09T07:41:48.593Z,0.52
2022-12-09T07:47:10.001Z,0.36
2022-12-09T07:52:31.314Z,0.27
2022-12-09T07:57:52.228Z,0.05
2022-12-09T08:03:13.948Z,-0.04
2022-12-09T08:08:35.067Z,-0.23
2022-12-09T08:13:58.429Z,-0.25
2022-12-09T08:19:19.504Z,-0.23
2022-12-09T08:24:40.900Z,-0.14
2022-12-09T08:30:01.931Z,-0.06
2022-12-09T08:35:23.706Z,0.04
2022-12-09T08:40:45.024Z,-0.02
2022-12-09T08:46:06.432Z,-0.05
2022-12-09T08:51:29.777Z,-0.01
2022-12-09T08:56:53.638Z,-0.03
2022-12-09T09:02:14.773Z,0.01
2022-12-09T09:07:37.246Z,0.10
2022-12-09T09:12:58.338Z,0.13
2022-12-09T09:18:19.678Z,0.27
2022-12-09T09:23:40.888Z,0.39
2022-12-09T09:29:01.551Z,0.32
2022-12-09T09:34:23.115Z,0.31
2022-12-09T09:39:44.765Z,0.42
2022-12-09T09:45:14.730Z,0.40
2022-12-09T09:50:59.101Z,0.58
2022-12-09T09:56:20.023Z,0.69
2022-12-09T10:01:44.104Z,0.71
2022-12-09T10:07:17.965Z,0.80
2022-12-09T10:13:12.304Z,0.86
2022-12-09T10:19:15.592Z,0.99
2022-12-09T10:24:40.720Z,1.17
2022-12-09T10:30:10.950Z,1.05
2022-12-09T10:35:33.762Z,1.04
2022-12-09T10:42:03.782Z,1.15
2022-12-09T10:47:28.237Z,1.48
2022-12-09T10:52:50.071Z,1.50
2022-12-09T10:58:15.753Z,1.68
2022-12-09T11:03:52.084Z,1.64
2022-12-09T11:09:25.195Z,1.65
2022-12-09T11:14:52.521Z,1.88
2022-12-09T11:20:14.362Z,1.56
2022-12-09T11:25:37.071Z,1.46
2022-12-09T11:36:59.102Z,1.28
2022-12-09T11:42:23.148Z,2.03
2022-12-09T11:53:34.019Z,1.93
2022-12-09T11:59:06.617Z,1.75
2022-12-09T12:04:39.744Z,1.80
2022-12-09T12:10:02.517Z,1.88
2022-12-09T12:15:32.371Z,1.80
2022-12-09T12:21:20.472Z,1.69
2022-12-09T12:27:02.115Z,1.70
2022-12-09T12:32:41.026Z,1.50
2022-12-09T12:38:30.875Z,1.51
2022-12-09T12:44:37.989Z,1.68
2022-12-09T12:50:22.841Z,1.62
2022-12-09T12:55:48.942Z,1.58
2022-12-09T13:01:30.660Z,1.60
2022-12-09T13:07:08.159Z,1.56
2022-12-09T13:12:56.657Z,1.62
2022-12-09T13:18:23.592Z,1.66
2022-12-09T13:24:13.623Z,1.62
2022-12-09T13:29:40.220Z,1.46
2022-12-09T13:35:13.651Z,1.46
2022-12-09T13:40:39.052Z,1.41
2022-12-09T13:46:01.131Z,1.34
2022-12-09T13:51:23.274Z,1.34
2022-12-09T13:56:47.721Z,1.37
2022-12-09T14:02:24.979Z,1.36
2022-12-09T14:08:21.982Z,1.23
2022-12-09T14:13:42.867Z,1.21
2022-12-09T14:19:45.079Z,1.15
2022-12-09T14:25:28.396Z,1.53
2022-12-09T14:30:54.634Z,1.64
2022-12-09T14:36:15.574Z,1.50
2022-12-09T14:42:01.448Z,1.37
2022-12-09T14:47:31.149Z,1.33
2022-12-09T14:52:57.618Z,1.37
2022-12-09T14:58:22.608Z,1.29
2022-12-09T15:03:59.959Z,1.31
2022-12-09T15:09:23.436Z,1.21
2022-12-09T15:14:45.326Z,1.66
2022-12-09T15:20:07.441Z,1.32
2022-12-09T15:25:28.905Z,1.20
2022-12-09T15:31:05.780Z,1.26
2022-12-09T15:36:32.888Z,1.31
2022-12-09T15:42:07.360Z,1.41
2022-12-09T15:47:36.574Z,1.37
2022-12-09T15:53:01.672Z,1.19
2022-12-09T15:58:27.326Z,1.12
2022-12-09T16:03:50.917Z,1.16
2022-12-09T16:09:18.014Z,1.17
2022-12-09T16:14:44.286Z,1.23
2022-12-09T16:20:33.130Z,1.30
2022-12-09T16:26:04.785Z,1.37
2022-12-09T16:31:28.306Z,1.39
2022-12-09T16:36:55.585Z,1.32
2022-12-09T16:42:30.850Z,1.31
2022-12-09T16:47:56.108Z,1.20
2022-12-09T16:53:20.429Z,1.11
2022-12-09T16:58:41.200Z,1.18
2022-12-09T17:04:10.494Z,1.46
2022-12-09T17:09:31.699Z,1.37
2022-12-09T17:14:54.105Z,1.37
2022-12-09T17:20:15.038Z,1.28
2022-12-09T17:25:35.710Z,1.21
2022-12-09T17:31:00.164Z,1.05
2022-12-09T17:36:20.935Z,1.12
2022-12-09T17:41:42.847Z,1.09
2022-12-09T17:47:04.045Z,1.06
2022-12-09T17:52:25.064Z,1.40
2022-12-09T17:57:49.812Z,1.32
2022-12-09T18:03:22.119Z,1.08
2022-12-09T18:08:48.706Z,1.38
2022-12-09T18:14:10.411Z,1.08
2022-12-09T18:19:31.874Z,0.90
2022-12-09T18:24:52.469Z,0.83
2022-12-09T18:30:13.405Z,0.69
2022-12-09T18:35:34.608Z,0.81
2022-12-09T18:41:01.218Z,0.89
2022-12-09T18:46:27.687Z,0.95
2022-12-09T18:51:50.944Z,0.83
2022-12-09T18:57:11.575Z,0.79
2022-12-09T19:02:32.525Z,0.78
2022-12-09T19:07:53.217Z,0.78
2022-12-09T19:13:14.089Z,0.75
2022-12-09T19:18:34.747Z,0.68
2022-12-09T19:23:56.445Z,0.68
2022-12-09T19:29:18.289Z,0.69
2022-12-09T19:34:39.013Z,0.61
2022-12-09T19:40:00.012Z,0.57
2022-12-09T19:45:20.726Z,0.50
2022-12-09T19:50:41.431Z,0.55
2022-12-09T19:56:04.796Z,0.49
2022-12-09T20:01:28.823Z,0.50
2022-12-09T20:06:49.748Z,0.52
2022-12-09T20:12:10.693Z,0.51
2022-12-09T20:17:31.573Z,0.49
2022-12-09T20:22:52.442Z,0.42
2022-12-09T20:28:13.319Z,0.29
2022-12-09T20:33:34.790Z,0.25
2022-12-09T20:38:58.897Z,0.16
2022-12-09T20:44:20.192Z,0.14
2022-12-09T20:49:40.742Z,0.09
2022-12-09T20:55:01.720Z,0.05
2022-12-09T21:00:23.611Z,0.01
2022-12-09T21:05:44.681Z,0.11
2022-12-09T21:11:08.118Z,0.13
2022-12-09T21:16:32.321Z,0.23
2022-12-09T21:21:54.490Z,0.25
2022-12-09T21:27:15.040Z,0.29
2022-12-09T21:32:35.691Z,0.46
2022-12-09T21:37:56.496Z,0.66
2022-12-09T21:43:17.137Z,0.81
2022-12-09T21:48:38.784Z,0.82
2022-12-09T21:53:59.749Z,0.66
2022-12-09T21:59:20.865Z,0.69
2022-12-09T22:04:41.822Z,0.59
2022-12-09T22:10:02.579Z,0.49
2022-12-09T22:15:23.362Z,0.50
2022-12-09T22:21:22.620Z,0.53
2022-12-09T22:26:25.841Z,0.58
2022-12-09T22:31:47.105Z,0.46
2022-12-09T22:37:35.176Z,0.62
2022-12-09T22:42:49.595Z,0.77
2022-12-09T22:48:10.259Z,0.78
2022-12-09T22:53:31.106Z,0.85
2022-12-09T22:58:52.083Z,0.88
2022-12-09T23:04:14.716Z,0.76
2022-12-09T23:09:35.666Z,0.66
2022-12-09T23:14:56.537Z,0.76
2022-12-09T23:20:17.568Z,0.67
2022-12-09T23:25:38.784Z,0.71
2022-12-09T23:31:02.070Z,0.72
2022-12-09T23:36:26.371Z,0.66
2022-12-09T23:41:48.219Z,0.54
2022-12-09T23:47:09.074Z,0.67
2022-12-09T23:52:29.790Z,0.84
2022-12-09T23:57:50.474Z,0.98
